Nevada, Minnesota
Current Conditions -  °F | °C
As of 10:16 AM on Wednesday 22 Oct 2014 (Local Time) from KAUM Reporting Station
Scattered Clouds Scattered Clouds  
Wind Chill: 41°   Ceiling: Unl
Heat Index: 46°   Visibility: 10mi
Dew Point: 39°   Wind: 12mph
Humidity: 76%   Direction: 170°S
Pressure: 30.22"   Gusts: 23mph
Location:  43.5433°N, 92.9289°W
Report Text: KAUM 221516Z AUTO 17010G20KT 10SM SCT060 08/04 A3022 RMK AO2
Loading
Personal Weather Stations






























Interactive Weather Map
Tropical Storm Tracking
New forecast layout! Learn more

10-Day Weather Forecast

Advertisements
Track Severe Weather on mobile